»·PEaware :: APA8245 YMHB-NZAA

APA8245 :: YMHB-NZAA

FLIGHT INFORMATION

Flight Status: Arrived
Operator: Unknown
More flights by this operator :: More flights under this callsign
Pilot: Stacy K. (11621)
Aircraft: BOEING 737-800
(B738)
More flights by this aircraft type
Origin: YMHB Hobart
Australia
Destination: NZAA Auckland Intl
New Zealand
More flights between these airports :: More routes between these airports
Route: HEWIT L513 COOPS/N0449F350 L513 VELMO ARAD2E
File this flight plan on PilotEdge
Remarks: PBN / A1B1C1D1S1S2 DOF / 180527 REG / ZKPQY EET / YBBB0026 NZZO0139 SEL / DEFK OPR / APA PER / C RMK / TCAS SIMBRIEF
Altitude:
(Current/Filed)
33,000ft
Speed:
(Current/Filed)
447kts
Departed: 27-May-18 03:50 PM
Arrived: 27-May-18 07:01 PM
Distance/Time
Traveled:
1297nm/3:11
Distance/Time
To Go:
Arrived

Flight Plot

Page will automatically refresh every two minutes.

Flight plan parsing failed; only flown route is shown


Map Options




Map Legend


Flown Route
Filed Route
Departure Airport
Arrival Airport
Navaid (VOR, NDB)
Fix

Horizontal Profiles

Position Reports

Time Latitude Longitude Heading Altitude Ground
Speed
27-May-18 15:33 -42.835779 147.503882 225 22ft 0kts
27-May-18 15:34 -42.835779 147.503882 225 22ft 0kts
27-May-18 15:35 -42.835779 147.503882 225 22ft 0kts
27-May-18 15:36 -42.835779 147.503882 225 22ft 0kts
27-May-18 15:37 -42.835779 147.503882 225 22ft 0kts
27-May-18 15:38 -42.835779 147.503882 225 22ft 0kts
27-May-18 15:39 -42.835779 147.503882 225 22ft 0kts
27-May-18 15:40 -42.835779 147.503882 225 22ft 0kts
27-May-18 15:41 -42.835384 147.504426 225 22ft 2kts
27-May-18 15:42 -42.835200 147.504681 225 22ft 0kts
27-May-18 15:43 -42.835200 147.504680 225 22ft 0kts
27-May-18 15:44 -42.835200 147.504680 225 22ft 0kts
27-May-18 15:45 -42.836423 147.505947 131 22ft 11kts
27-May-18 15:46 -42.837278 147.509410 93 22ft 9kts
27-May-18 15:47 -42.839650 147.513155 101 22ft 13kts
27-May-18 15:48 -42.838872 147.515433 131 22ft 9kts
27-May-18 15:49 -42.842932 147.520569 188 22ft 14kts
27-May-18 15:50 -42.834321 147.509375 316 22ft 110kts
27-May-18 15:51 -42.832558 147.506690 133 22ft 19kts
27-May-18 15:52 -42.836488 147.512091 135 22ft 20kts
27-May-18 15:53 -42.840621 147.517651 135 22ft 16kts
27-May-18 15:54 -42.843117 147.521178 2 22ft 11kts
27-May-18 15:55 -42.824628 147.497611 318 637ft 184kts
27-May-18 15:56 -42.780355 147.439231 314 4133ft 237kts
27-May-18 15:57 -42.727100 147.385774 356 7819ft 261kts
27-May-18 15:58 -42.657578 147.427240 22 11273ft 291kts
27-May-18 15:59 -42.569335 147.449974 356 13254ft 354kts
27-May-18 16:00 -42.469245 147.433490 350 16461ft 370kts
27-May-18 16:01 -42.365439 147.424539 18 19268ft 390kts
27-May-18 16:02 -42.317138 147.551995 91 21558ft 430kts
27-May-18 16:03 -42.335729 147.714902 96 23737ft 445kts
27-May-18 16:04 -42.351076 147.882650 93 25676ft 457kts
27-May-18 16:05 -42.363191 148.055555 92 27422ft 467kts
27-May-18 16:06 -42.373849 148.232999 92 29064ft 473kts
27-May-18 16:07 -42.383950 148.409358 92 30903ft 469kts
27-May-18 16:08 -42.394167 148.583414 91 32501ft 466kts
27-May-18 16:09 -42.403697 148.758394 91 33185ft 461kts
27-May-18 16:10 -42.413199 148.932104 91 33224ft 462kts
27-May-18 16:11 -42.422270 149.105457 91 33225ft 462kts
27-May-18 16:12 -42.430769 149.278488 91 33226ft 461kts
27-May-18 16:13 -42.439134 149.451556 91 33228ft 460kts
27-May-18 16:14 -42.447099 149.624429 91 33229ft 460kts
27-May-18 16:15 -42.454754 149.797380 90 33230ft 460kts
27-May-18 16:16 -42.462277 149.970250 91 33230ft 460kts
27-May-18 16:17 -42.469675 150.143248 91 33230ft 460kts
27-May-18 16:18 -42.477223 150.316102 91 33231ft 459kts
27-May-18 16:19 -42.484081 150.488929 90 33232ft 459kts
27-May-18 16:20 -42.490311 150.661586 90 33232ft 459kts
27-May-18 16:21 -42.496591 150.833698 90 33233ft 458kts
27-May-18 16:22 -42.492313 151.005457 78 33235ft 454kts
27-May-18 16:23 -42.471781 151.174154 77 33234ft 453kts
27-May-18 16:24 -42.450666 151.342545 77 33235ft 453kts
27-May-18 16:25 -42.429659 151.510779 77 33236ft 454kts
27-May-18 16:26 -42.408768 151.679113 77 33237ft 453kts
27-May-18 16:27 -42.388002 151.847300 77 33238ft 453kts
27-May-18 16:28 -42.366563 152.015174 77 33237ft 453kts
27-May-18 16:29 -42.344755 152.182994 77 33238ft 453kts
27-May-18 16:30 -42.322784 152.350788 77 33239ft 453kts
27-May-18 16:31 -42.300494 152.518681 77 33240ft 454kts
27-May-18 16:32 -42.278031 152.686036 77 33239ft 454kts
27-May-18 16:33 -42.255354 152.854239 77 33240ft 455kts
27-May-18 16:34 -42.232544 153.022291 77 33240ft 456kts
27-May-18 16:35 -42.209681 153.190816 77 33240ft 457kts
27-May-18 16:36 -42.186737 153.359254 77 33239ft 457kts
27-May-18 16:37 -42.162947 153.527939 76 33239ft 458kts
27-May-18 16:38 -42.138643 153.696395 76 33246ft 458kts
27-May-18 16:39 -42.114136 153.864922 76 33248ft 458kts
27-May-18 16:40 -42.089359 154.033132 76 33249ft 458kts
27-May-18 16:41 -42.064593 154.200743 76 33250ft 458kts
27-May-18 16:42 -42.039762 154.369070 76 33251ft 458kts
27-May-18 16:43 -42.014731 154.537331 76 33251ft 459kts
27-May-18 16:44 -41.989450 154.706004 76 33252ft 462kts
27-May-18 16:45 -41.963857 154.875409 76 33253ft 463kts
27-May-18 16:46 -41.937692 155.045458 77 33254ft 465kts
27-May-18 16:47 -41.911081 155.215698 77 33255ft 466kts
27-May-18 16:48 -41.884039 155.386034 77 33255ft 467kts
27-May-18 16:49 -41.856571 155.556624 77 33256ft 467kts
27-May-18 16:50 -41.828886 155.726866 77 33257ft 468kts
27-May-18 16:51 -41.801012 155.897410 77 33257ft 468kts
27-May-18 16:52 -41.773212 156.067274 77 33258ft 468kts
27-May-18 16:53 -41.744744 156.237396 76 33258ft 468kts
27-May-18 16:54 -41.715926 156.407328 76 33259ft 468kts
27-May-18 16:55 -41.686846 156.577156 76 33259ft 468kts
27-May-18 16:56 -41.657494 156.747264 76 33260ft 469kts
27-May-18 16:57 -41.628019 156.916987 76 33260ft 468kts
27-May-18 16:58 -41.598226 157.086595 76 33261ft 469kts
27-May-18 16:59 -41.568271 157.255702 76 33261ft 468kts
27-May-18 17:00 -41.538157 157.424786 76 33262ft 468kts
27-May-18 17:01 -41.508133 157.593065 76 33262ft 467kts
27-May-18 17:02 -41.478006 157.761769 76 33262ft 467kts
27-May-18 17:03 -41.447503 157.930026 76 33263ft 467kts
27-May-18 17:04 -41.416514 158.098130 76 33263ft 467kts
27-May-18 17:05 -41.385138 158.266129 76 33263ft 467kts
27-May-18 17:06 -41.353588 158.433929 76 33265ft 467kts
27-May-18 17:07 -41.321815 158.601283 76 33264ft 468kts
27-May-18 17:08 -41.289688 158.768919 76 33257ft 468kts
27-May-18 17:09 -41.257214 158.936929 76 33338ft 471kts
27-May-18 17:10 -41.224322 159.105436 76 34654ft 471kts
27-May-18 17:11 -41.191137 159.273621 76 35246ft 466kts
27-May-18 17:12 -41.158123 159.440268 76 35256ft 466kts
27-May-18 17:13 -41.125062 159.606089 76 35253ft 466kts
27-May-18 17:14 -41.091874 159.772246 76 35252ft 466kts
27-May-18 17:15 -41.058709 159.938320 76 35253ft 466kts
27-May-18 17:16 -41.025349 160.103963 76 35253ft 465kts
27-May-18 17:17 -40.991220 160.269373 75 35253ft 465kts
27-May-18 17:18 -40.956686 160.434415 75 35254ft 465kts
27-May-18 17:19 -40.921966 160.599938 75 35254ft 466kts
27-May-18 17:20 -40.886711 160.764531 74 35254ft 466kts
27-May-18 17:21 -40.850168 160.929225 74 35255ft 466kts
27-May-18 17:22 -40.813140 161.093404 74 35257ft 467kts
27-May-18 17:23 -40.775878 161.257538 74 35256ft 466kts
27-May-18 17:24 -40.738554 161.420734 74 35256ft 466kts
27-May-18 17:25 -40.700940 161.584503 74 35256ft 466kts
27-May-18 17:26 -40.663379 161.747959 74 35257ft 466kts
27-May-18 17:27 -40.625782 161.911490 74 35257ft 466kts
27-May-18 17:28 -40.588138 162.074475 74 35257ft 465kts
27-May-18 17:29 -40.549811 162.236844 73 35258ft 466kts
27-May-18 17:30 -40.510971 162.399593 73 35258ft 466kts
27-May-18 17:31 -40.478990 162.532863 73 35270ft 467kts
27-May-18 17:32 -40.439641 162.695448 73 35270ft 466kts
27-May-18 17:33 -40.400177 162.857740 73 35241ft 466kts
27-May-18 17:34 -40.360546 163.019626 73 35238ft 466kts
27-May-18 17:35 -40.320834 163.181534 73 35238ft 467kts
27-May-18 17:36 -40.281142 163.343396 73 35235ft 466kts
27-May-18 17:37 -40.241536 163.504606 73 35235ft 466kts
27-May-18 17:38 -40.200941 163.666274 73 35234ft 466kts
27-May-18 17:39 -40.161914 163.827929 74 35233ft 466kts
27-May-18 17:40 -40.124422 163.989915 74 35233ft 466kts
27-May-18 17:41 -40.087006 164.152085 74 35232ft 466kts
27-May-18 17:42 -40.055810 164.287339 74 35232ft 466kts
27-May-18 17:43 -40.018412 164.448874 74 35222ft 467kts
27-May-18 17:44 -39.980348 164.610765 74 35208ft 468kts
27-May-18 17:45 -39.935351 164.800264 74 35207ft 468kts
27-May-18 17:46 -39.896620 164.962274 74 35206ft 469kts
27-May-18 17:47 -39.857557 165.124502 74 35205ft 470kts
27-May-18 17:48 -39.818049 165.286729 74 35201ft 470kts
27-May-18 17:49 -39.784914 165.421326 74 35200ft 471kts
27-May-18 17:50 -39.744698 165.583202 74 35199ft 471kts
27-May-18 17:51 -39.704177 165.745089 74 35198ft 470kts
27-May-18 17:52 -39.663556 165.906840 74 35196ft 471kts
27-May-18 17:53 -39.622806 166.068416 74 35195ft 472kts
27-May-18 17:54 -39.581745 166.230131 75 35194ft 471kts
27-May-18 17:55 -39.540706 166.391145 75 35193ft 472kts
27-May-18 17:56 -39.499269 166.552651 74 35191ft 472kts
27-May-18 17:57 -39.457674 166.713937 75 35190ft 473kts
27-May-18 17:58 -39.415748 166.875546 75 35188ft 474kts
27-May-18 17:59 -39.373730 167.036850 75 35187ft 474kts
27-May-18 18:00 -39.331363 167.198453 75 35185ft 475kts
27-May-18 18:01 -39.288777 167.360179 75 35183ft 475kts
27-May-18 18:02 -39.245739 167.521797 75 35181ft 475kts
27-May-18 18:03 -39.202440 167.683124 75 35179ft 476kts
27-May-18 18:04 -39.158917 167.844014 75 35177ft 476kts
27-May-18 18:05 -39.114875 168.005069 75 35162ft 476kts
27-May-18 18:06 -39.071102 168.166040 75 35158ft 478kts
27-May-18 18:07 -39.027167 168.327462 75 35156ft 478kts
27-May-18 18:08 -38.982515 168.488788 75 35154ft 479kts
27-May-18 18:09 -38.937519 168.649896 75 35152ft 479kts
27-May-18 18:10 -38.892232 168.811047 75 35150ft 480kts
27-May-18 18:11 -38.846893 168.971675 75 35147ft 479kts
27-May-18 18:12 -38.801205 169.132759 75 35145ft 480kts
27-May-18 18:13 -38.755278 169.293663 75 35139ft 481kts
27-May-18 18:14 -38.709041 169.454561 75 35135ft 482kts
27-May-18 18:15 -38.662381 169.615511 75 35132ft 483kts
27-May-18 18:16 -38.615431 169.776336 75 35128ft 484kts
27-May-18 18:17 -38.568015 169.937546 75 35129ft 484kts
27-May-18 18:18 -38.520571 170.098753 75 35100ft 485kts
27-May-18 18:19 -38.472659 170.259882 75 35094ft 485kts
27-May-18 18:20 -38.424701 170.420951 75 35092ft 486kts
27-May-18 18:21 -38.376470 170.581625 74 35090ft 485kts
27-May-18 18:22 -38.328015 170.742101 74 35088ft 484kts
27-May-18 18:23 -38.279632 170.901662 74 35086ft 484kts
27-May-18 18:24 -38.218793 171.056342 66 35084ft 491kts
27-May-18 18:25 -38.152718 171.208232 66 35081ft 491kts
27-May-18 18:26 -38.086615 171.360190 66 35079ft 491kts
27-May-18 18:27 -38.020278 171.511840 66 35076ft 492kts
27-May-18 18:28 -37.953554 171.663714 65 35073ft 493kts
27-May-18 18:29 -37.886513 171.815815 65 35070ft 494kts
27-May-18 18:30 -37.819548 171.966896 65 35066ft 493kts
27-May-18 18:31 -37.752323 172.118339 65 35063ft 494kts
27-May-18 18:32 -37.685285 172.269899 65 35057ft 493kts
27-May-18 18:33 -37.617645 172.421076 64 35056ft 495kts
27-May-18 18:34 -37.549410 172.571650 64 35051ft 496kts
27-May-18 18:35 -37.481227 172.722630 64 34077ft 496kts
27-May-18 18:36 -37.412806 172.873328 65 32280ft 493kts
27-May-18 18:37 -37.345757 173.021395 65 30477ft 481kts
27-May-18 18:38 -37.280063 173.165562 65 28676ft 469kts
27-May-18 18:39 -37.215533 173.305850 65 26874ft 459kts
27-May-18 18:40 -37.153118 173.442874 71 25066ft 442kts
27-May-18 18:41 -37.124084 173.587192 86 23274ft 420kts
27-May-18 18:42 -37.102222 173.728246 86 21469ft 406kts
27-May-18 18:43 -37.079973 173.865692 85 19668ft 398kts
27-May-18 18:44 -37.057568 173.999281 85 17869ft 387kts
27-May-18 18:45 -37.035835 174.129500 84 16071ft 377kts
27-May-18 18:46 -37.015843 174.247183 84 14251ft 322kts
27-May-18 18:47 -36.997453 174.355034 83 12455ft 313kts
27-May-18 18:48 -36.985166 174.426556 82 11232ft 305kts
27-May-18 18:49 -36.961232 174.522251 75 9628ft 262kts
27-May-18 18:50 -36.938461 174.605067 76 8283ft 244kts
27-May-18 18:51 -36.922960 174.661461 76 7439ft 239kts
27-May-18 18:52 -36.901456 174.738960 75 6233ft 231kts
27-May-18 18:53 -36.880608 174.813667 75 5040ft 225kts
27-May-18 18:54 -36.860338 174.887010 75 3836ft 219kts
27-May-18 18:55 -36.871836 174.950326 137 3032ft 186kts
27-May-18 18:56 -36.910033 174.990821 160 2941ft 180kts
27-May-18 18:57 -36.948873 174.960055 220 2602ft 163kts
27-May-18 18:58 -36.976523 174.915657 250 1839ft 167kts
27-May-18 18:59 -36.990768 174.862940 247 971ft 141kts
27-May-18 19:00 -37.004397 174.812418 248 215ft 142kts
27-May-18 19:01 -37.012485 174.783897 272 32ft 26kts
27-May-18 19:02 -37.011209 174.782286 70 32ft 15kts
27-May-18 19:03 -37.008628 174.785779 59 32ft 9kts
27-May-18 19:04 -37.008292 174.788635 122 32ft 2kts
27-May-18 19:05 -37.007906 174.789731 353 32ft 5kts
27-May-18 19:06 -37.007537 174.789679 354 32ft 0kts
27-May-18 19:07 -37.007537 174.789679 354 32ft 0kts
27-May-18 19:08 -37.007537 174.789679 354 32ft 0kts
27-May-18 19:09 -37.007537 174.789679 354 32ft 0kts
27-May-18 19:10 -37.007537 174.789679 354 32ft 0kts
27-May-18 19:11 -37.007537 174.789679 354 32ft 0kts
27-May-18 19:12 -37.007537 174.789679 354 32ft 0kts
27-May-18 19:13 -37.007537 174.789679 354 32ft 0kts
27-May-18 19:14 -37.007537 174.789679 354 32ft 0kts
27-May-18 19:15 -37.007537 174.789679 354 32ft 0kts

Navigation Log

Ident Type
Flight plan parsing failed, navigation log unavailable